createdAt,value
2019-03-09T00:01:27.343Z,5.43
2019-03-09T00:03:57.106Z,7.53
2019-03-09T00:06:27.027Z,6.80
2019-03-09T00:08:56.979Z,3.47
2019-03-09T00:11:26.852Z,3.83
2019-03-09T00:13:57.891Z,6.97
2019-03-09T00:16:27.716Z,3.27
2019-03-09T00:18:57.408Z,2.83
2019-03-09T00:21:27.088Z,7.23
2019-03-09T00:24:14.544Z,4.13
2019-03-09T00:26:58.257Z,4.50
2019-03-09T00:29:32.984Z,4.80
2019-03-09T00:32:05.742Z,5.37
2019-03-09T00:34:35.524Z,5.30
2019-03-09T00:37:05.530Z,2.83
2019-03-09T00:39:35.459Z,2.60
2019-03-09T00:42:05.491Z,3.07
2019-03-09T00:44:35.615Z,5.97
2019-03-09T00:47:05.719Z,4.70
2019-03-09T00:49:35.691Z,3.43
2019-03-09T00:52:05.912Z,5.00
2019-03-09T00:54:35.748Z,3.33
2019-03-09T00:57:05.879Z,2.67
2019-03-09T00:59:35.790Z,2.97
2019-03-09T01:02:05.728Z,3.67
2019-03-09T01:04:35.884Z,8.40
2019-03-09T01:07:05.971Z,3.53
2019-03-09T01:09:35.879Z,3.73
2019-03-09T01:12:06.027Z,5.17
2019-03-09T01:14:36.939Z,4.80
2019-03-09T01:17:07.060Z,4.80
2019-03-09T01:19:36.948Z,3.40
2019-03-09T01:22:07.056Z,4.10
2019-03-09T01:24:37.073Z,3.43
2019-03-09T01:27:06.831Z,6.20
2019-03-09T01:29:36.707Z,2.93
2019-03-09T01:32:06.744Z,7.90
2019-03-09T01:34:36.672Z,5.90
2019-03-09T01:37:06.772Z,3.93
2019-03-09T01:39:36.678Z,3.63
2019-03-09T01:42:06.703Z,4.60
2019-03-09T01:44:36.491Z,4.47
2019-03-09T01:47:06.225Z,3.53
2019-03-09T01:49:36.154Z,5.23
2019-03-09T01:52:06.353Z,5.47
2019-03-09T01:54:36.388Z,6.07
2019-03-09T01:57:06.315Z,4.10
2019-03-09T01:59:36.419Z,5.70
2019-03-09T02:02:06.643Z,6.00
2019-03-09T02:04:36.333Z,3.23
2019-03-09T02:07:06.135Z,3.37
2019-03-09T02:09:35.812Z,4.20
2019-03-09T02:12:05.563Z,4.67
2019-03-09T02:14:35.403Z,11.93
2019-03-09T02:17:05.723Z,10.87
2019-03-09T02:19:35.852Z,5.50
2019-03-09T02:22:05.836Z,8.23
2019-03-09T02:24:35.951Z,6.87
2019-03-09T02:27:08.683Z,6.10
2019-03-09T02:29:38.441Z,8.37
2019-03-09T02:32:08.366Z,6.10
2019-03-09T02:34:38.636Z,12.13
2019-03-09T02:37:08.436Z,8.73
2019-03-09T02:40:00.588Z,7.10
2019-03-09T02:42:30.389Z,8.00
2019-03-09T02:45:00.546Z,9.57
2019-03-09T02:47:30.448Z,6.03
2019-03-09T02:50:00.508Z,7.83
2019-03-09T02:52:30.645Z,7.13
2019-03-09T02:55:00.612Z,4.60
2019-03-09T02:57:30.464Z,6.70
2019-03-09T03:00:01.163Z,7.03
2019-03-09T03:02:53.797Z,5.80
2019-03-09T03:05:23.648Z,4.23
2019-03-09T03:07:53.787Z,3.13
2019-03-09T03:10:23.683Z,7.63
2019-03-09T03:12:53.519Z,9.10
2019-03-09T03:15:31.868Z,4.37
2019-03-09T03:18:01.863Z,4.80
2019-03-09T03:20:31.840Z,3.70
2019-03-09T03:23:01.609Z,2.33
2019-03-09T03:25:31.662Z,5.57
2019-03-09T03:28:01.388Z,3.87
2019-03-09T03:30:31.468Z,5.10
2019-03-09T03:33:01.309Z,7.50
2019-03-09T03:35:31.277Z,4.40
2019-03-09T03:38:01.382Z,6.80
2019-03-09T03:40:31.130Z,3.13
2019-03-09T03:43:00.897Z,3.17
2019-03-09T03:45:33.276Z,4.70
2019-03-09T03:48:03.154Z,1.97
2019-03-09T03:50:32.989Z,9.07
2019-03-09T03:53:03.039Z,1.57
2019-03-09T03:55:33.096Z,3.37
2019-03-09T03:58:03.009Z,6.50
2019-03-09T04:00:33.173Z,2.87
2019-03-09T04:03:03.257Z,2.77
2019-03-09T04:05:33.144Z,3.07
2019-03-09T04:08:03.150Z,4.33
2019-03-09T04:10:33.116Z,4.17
2019-03-09T04:13:03.724Z,5.73
2019-03-09T04:15:33.464Z,5.07
2019-03-09T04:18:03.356Z,4.37
2019-03-09T04:20:33.435Z,3.53
2019-03-09T04:23:03.235Z,3.50
2019-03-09T04:25:33.072Z,6.53
2019-03-09T04:28:02.925Z,6.03
2019-03-09T04:30:32.965Z,4.83
2019-03-09T04:33:02.853Z,5.30
2019-03-09T04:35:32.775Z,4.33
2019-03-09T04:38:04.772Z,4.40
2019-03-09T04:40:34.654Z,6.03
2019-03-09T04:43:23.363Z,7.20
2019-03-09T04:45:53.323Z,6.03
2019-03-09T04:48:23.195Z,7.17
2019-03-09T04:50:52.947Z,6.10
2019-03-09T04:53:23.081Z,4.70
2019-03-09T04:55:53.175Z,6.03
2019-03-09T04:58:22.911Z,6.50
2019-03-09T05:00:53.727Z,6.23
2019-03-09T05:03:23.455Z,6.80
2019-03-09T05:05:53.580Z,5.70
2019-03-09T05:08:39.604Z,8.03
2019-03-09T05:11:30.691Z,7.30
2019-03-09T05:14:09.980Z,4.90
2019-03-09T05:16:39.695Z,7.03
2019-03-09T05:19:09.611Z,6.17
2019-03-09T05:21:39.536Z,6.37
2019-03-09T05:24:09.511Z,6.57
2019-03-09T05:26:39.696Z,5.10
2019-03-09T05:29:09.708Z,4.90
2019-03-09T05:31:39.533Z,5.70
2019-03-09T05:34:09.414Z,9.53
2019-03-09T05:36:39.123Z,7.00
2019-03-09T05:39:08.848Z,6.90
2019-03-09T05:41:38.727Z,8.30
2019-03-09T05:44:08.351Z,7.40
2019-03-09T05:46:38.444Z,10.33
2019-03-09T05:49:08.297Z,10.77
2019-03-09T05:51:38.433Z,8.67
2019-03-09T05:54:08.575Z,6.37
2019-03-09T05:56:38.639Z,8.03
2019-03-09T05:59:08.558Z,9.43
2019-03-09T06:01:38.300Z,9.77
2019-03-09T06:04:08.160Z,9.27
2019-03-09T06:06:38.928Z,6.47
2019-03-09T06:09:08.691Z,6.73
2019-03-09T06:11:38.756Z,5.93
2019-03-09T06:14:08.856Z,9.67
2019-03-09T06:16:39.928Z,7.73
2019-03-09T06:19:10.058Z,9.20
2019-03-09T06:21:40.146Z,8.03
2019-03-09T06:24:09.923Z,10.37
2019-03-09T06:26:39.967Z,6.53
2019-03-09T06:29:09.890Z,9.67
2019-03-09T06:31:39.870Z,10.97
2019-03-09T06:34:09.932Z,9.83
2019-03-09T06:36:47.797Z,8.53
2019-03-09T06:39:29.348Z,9.30
2019-03-09T06:42:42.107Z,10.63
2019-03-09T06:45:16.775Z,10.77
2019-03-09T06:47:47.043Z,13.33
2019-03-09T06:50:21.687Z,13.47
2019-03-09T06:52:51.769Z,7.13
2019-03-09T06:55:40.416Z,13.07
2019-03-09T06:58:10.630Z,12.53
2019-03-09T07:00:42.056Z,12.53
2019-03-09T07:03:13.539Z,8.97
2019-03-09T07:05:43.610Z,8.47
2019-03-09T07:08:13.455Z,6.17
2019-03-09T07:10:43.383Z,6.43
2019-03-09T07:13:13.305Z,5.37
2019-03-09T07:15:44.532Z,4.83
2019-03-09T07:18:35.095Z,3.13
2019-03-09T07:21:04.860Z,19.97
2019-03-09T07:23:34.847Z,5.73
2019-03-09T07:26:04.860Z,3.90
2019-03-09T07:28:35.619Z,2.07
2019-03-09T07:31:05.911Z,3.27
2019-03-09T07:33:37.517Z,4.97
2019-03-09T07:36:07.795Z,2.60
2019-03-09T07:38:37.738Z,3.27
2019-03-09T07:41:07.927Z,4.37
2019-03-09T07:43:37.652Z,2.33
2019-03-09T07:46:07.687Z,2.77
2019-03-09T07:48:37.830Z,2.90
2019-03-09T07:51:07.615Z,3.97
2019-03-09T07:53:37.708Z,6.17
2019-03-09T07:56:07.346Z,3.03
2019-03-09T07:58:37.562Z,4.13
2019-03-09T08:01:07.588Z,3.77
2019-03-09T08:03:39.187Z,6.23
2019-03-09T08:06:11.199Z,3.03
2019-03-09T08:08:40.757Z,1.97
2019-03-09T08:11:10.882Z,5.30
2019-03-09T08:13:40.715Z,2.77
2019-03-09T08:16:11.085Z,4.77
2019-03-09T08:18:41.191Z,2.97
2019-03-09T08:21:11.079Z,2.93
2019-03-09T08:23:41.222Z,3.30
2019-03-09T08:26:11.115Z,3.73
2019-03-09T08:28:41.002Z,5.43
2019-03-09T08:31:10.715Z,5.03
2019-03-09T08:33:40.678Z,5.40
2019-03-09T08:36:10.606Z,4.30
2019-03-09T08:38:40.461Z,3.70
2019-03-09T08:41:10.255Z,3.67
2019-03-09T08:43:40.323Z,2.03
2019-03-09T08:46:29.017Z,5.40
2019-03-09T08:49:00.063Z,3.80
2019-03-09T08:51:30.232Z,3.93
2019-03-09T08:54:00.199Z,4.67
2019-03-09T08:56:29.992Z,5.17
2019-03-09T08:59:00.095Z,5.73
2019-03-09T09:01:30.273Z,3.53
2019-03-09T09:04:00.112Z,1.97
2019-03-09T09:06:30.003Z,2.87
2019-03-09T09:09:00.083Z,2.33
2019-03-09T09:11:29.971Z,3.00
2019-03-09T09:13:59.900Z,2.50
2019-03-09T09:16:31.861Z,5.03
2019-03-09T09:19:01.543Z,2.97
2019-03-09T09:21:31.350Z,1.97
2019-03-09T09:24:02.701Z,2.23
2019-03-09T09:26:32.437Z,2.47
2019-03-09T09:29:02.111Z,1.10
2019-03-09T09:31:31.984Z,2.60
2019-03-09T09:34:02.587Z,2.67
2019-03-09T09:36:33.516Z,1.10
2019-03-09T09:39:04.814Z,2.93
2019-03-09T09:41:34.793Z,1.57
2019-03-09T09:44:06.977Z,2.60
2019-03-09T09:46:38.224Z,1.10
2019-03-09T09:49:08.139Z,4.57
2019-03-09T09:51:38.044Z,2.60
2019-03-09T09:54:09.092Z,2.77
2019-03-09T09:56:40.045Z,3.00
2019-03-09T09:59:10.932Z,3.17
2019-03-09T10:01:40.874Z,1.67
2019-03-09T10:04:10.673Z,2.03
2019-03-09T10:06:42.525Z,3.90
2019-03-09T10:09:12.160Z,3.90
2019-03-09T10:11:42.275Z,2.20
2019-03-09T10:14:12.156Z,13.80
2019-03-09T10:16:42.123Z,10.77
2019-03-09T10:19:13.928Z,3.10
2019-03-09T10:21:43.803Z,1.33
2019-03-09T10:24:13.895Z,2.53
2019-03-09T10:26:43.812Z,0.80
2019-03-09T10:29:13.915Z,2.30
2019-03-09T10:31:44.056Z,1.73
2019-03-09T10:34:14.001Z,1.57
2019-03-09T10:36:43.961Z,3.90
2019-03-09T10:39:13.801Z,4.87
2019-03-09T10:41:43.711Z,5.13
2019-03-09T10:44:13.805Z,12.40
2019-03-09T10:46:43.743Z,4.67
2019-03-09T10:49:13.620Z,1.63
2019-03-09T10:51:43.335Z,6.03
2019-03-09T10:54:13.316Z,4.50
2019-03-09T10:56:43.204Z,0.83
2019-03-09T10:59:13.065Z,2.97
2019-03-09T11:01:43.040Z,1.50
2019-03-09T11:04:13.147Z,1.20
2019-03-09T11:06:43.235Z,2.50
2019-03-09T11:09:12.991Z,1.50
2019-03-09T11:11:43.133Z,4.97
2019-03-09T11:14:13.019Z,1.23
2019-03-09T11:16:43.135Z,1.93
2019-03-09T11:19:13.005Z,0.90
2019-03-09T11:21:45.413Z,1.17
2019-03-09T11:24:15.612Z,1.80
2019-03-09T11:26:45.654Z,1.50
2019-03-09T11:29:15.545Z,3.63
2019-03-09T11:31:45.499Z,4.07
2019-03-09T11:34:15.257Z,2.63
2019-03-09T11:36:45.215Z,1.43
2019-03-09T11:39:15.039Z,2.17
2019-03-09T11:41:45.112Z,5.20
2019-03-09T11:44:15.342Z,2.50
2019-03-09T11:46:45.423Z,2.53
2019-03-09T11:49:15.163Z,1.37
2019-03-09T11:51:46.899Z,1.70
2019-03-09T11:54:17.132Z,2.93
2019-03-09T11:56:47.308Z,1.47
2019-03-09T11:59:17.298Z,1.87
2019-03-09T12:01:47.454Z,2.80
2019-03-09T12:04:17.459Z,2.63
2019-03-09T12:06:47.539Z,4.60
2019-03-09T12:09:17.510Z,1.93
2019-03-09T12:12:00.169Z,3.90
2019-03-09T12:14:30.226Z,2.83
2019-03-09T12:17:00.307Z,3.33
2019-03-09T12:19:30.027Z,3.27
2019-03-09T12:22:00.064Z,2.77
2019-03-09T12:24:29.859Z,2.93
2019-03-09T12:26:59.975Z,2.03
2019-03-09T12:29:29.966Z,5.90
2019-03-09T12:32:00.047Z,1.60
2019-03-09T12:34:30.160Z,2.13
2019-03-09T12:37:00.542Z,0.80
2019-03-09T12:39:30.343Z,3.20
2019-03-09T12:42:00.280Z,1.80
2019-03-09T12:44:30.078Z,3.50
2019-03-09T12:47:00.057Z,2.87
2019-03-09T12:49:29.987Z,1.83
2019-03-09T12:52:00.291Z,2.10
2019-03-09T12:54:30.260Z,4.17
2019-03-09T12:57:00.324Z,2.07
2019-03-09T12:59:30.396Z,3.17
2019-03-09T13:02:00.343Z,2.17
2019-03-09T13:04:30.471Z,0.83
2019-03-09T13:07:00.363Z,1.60
2019-03-09T13:09:30.496Z,2.40
2019-03-09T13:12:00.395Z,1.47
2019-03-09T13:14:30.403Z,1.60
2019-03-09T13:17:00.540Z,1.37
2019-03-09T13:19:30.495Z,0.70
2019-03-09T13:22:02.079Z,2.00
2019-03-09T13:24:31.910Z,3.10
2019-03-09T13:27:02.084Z,0.97
2019-03-09T13:29:32.136Z,1.00
2019-03-09T13:32:01.895Z,0.70
2019-03-09T13:34:32.043Z,0.67
2019-03-09T13:37:01.805Z,0.50
2019-03-09T13:39:31.938Z,0.80
2019-03-09T13:42:02.072Z,0.90
2019-03-09T13:44:31.854Z,1.03
2019-03-09T13:47:04.231Z,1.53
2019-03-09T13:49:33.536Z,0.97
2019-03-09T13:52:03.627Z,1.83
2019-03-09T13:54:33.396Z,1.00
2019-03-09T13:57:03.291Z,2.37
2019-03-09T13:59:33.199Z,0.77
2019-03-09T14:02:03.103Z,1.40
2019-03-09T14:04:33.149Z,0.93
2019-03-09T14:07:03.137Z,2.00
2019-03-09T14:09:33.244Z,0.50
2019-03-09T14:12:03.196Z,1.90
2019-03-09T14:14:33.109Z,1.13
2019-03-09T14:17:03.019Z,3.53
2019-03-09T14:19:33.132Z,1.13
2019-03-09T14:22:03.231Z,2.83
2019-03-09T14:24:33.191Z,0.90
2019-03-09T14:27:04.207Z,0.70
2019-03-09T14:29:33.994Z,1.83
2019-03-09T14:32:04.022Z,1.67
2019-03-09T14:34:33.921Z,1.10
2019-03-09T14:37:03.937Z,4.17
2019-03-09T14:39:33.627Z,1.17
2019-03-09T14:42:03.727Z,5.97
2019-03-09T14:44:33.588Z,1.27
2019-03-09T14:47:05.952Z,7.70
2019-03-09T14:49:35.692Z,5.77
2019-03-09T14:52:05.579Z,1.93
2019-03-09T14:54:40.167Z,1.77
2019-03-09T14:57:09.955Z,1.80
2019-03-09T14:59:39.709Z,2.00
2019-03-09T15:02:09.500Z,1.53
2019-03-09T15:04:39.339Z,1.93
2019-03-09T15:07:09.692Z,1.90
2019-03-09T15:09:39.492Z,3.93
2019-03-09T15:12:09.160Z,1.47
2019-03-09T15:14:38.887Z,1.80
2019-03-09T15:17:08.641Z,3.07
2019-03-09T15:19:38.291Z,1.80
2019-03-09T15:22:07.914Z,2.27
2019-03-09T15:24:43.796Z,2.77
2019-03-09T15:27:13.373Z,4.77
2019-03-09T15:29:43.430Z,3.13
2019-03-09T15:32:13.365Z,1.53
2019-03-09T15:34:43.184Z,0.97
2019-03-09T15:37:13.266Z,1.83
2019-03-09T15:39:43.093Z,2.10
2019-03-09T15:42:12.859Z,3.60
2019-03-09T15:44:42.623Z,1.30
2019-03-09T15:47:12.546Z,1.73
2019-03-09T15:49:42.423Z,3.03
2019-03-09T15:52:12.163Z,1.77
2019-03-09T15:54:42.015Z,1.07
2019-03-09T15:57:14.933Z,0.90
2019-03-09T15:59:44.675Z,0.87
2019-03-09T16:02:15.072Z,2.10
2019-03-09T16:04:44.815Z,1.53
2019-03-09T16:07:14.859Z,4.47
2019-03-09T16:09:44.608Z,2.17
2019-03-09T16:12:15.926Z,3.03
2019-03-09T16:14:45.843Z,1.17
2019-03-09T16:17:15.700Z,3.60
2019-03-09T16:19:45.595Z,2.33
2019-03-09T16:22:15.195Z,1.83
2019-03-09T16:24:45.048Z,3.30
2019-03-09T16:27:15.171Z,1.90
2019-03-09T16:29:45.287Z,2.40
2019-03-09T16:32:15.144Z,1.07
2019-03-09T16:34:45.119Z,1.13
2019-03-09T16:37:15.039Z,0.97
2019-03-09T16:39:45.046Z,1.83
2019-03-09T16:42:14.811Z,1.43
2019-03-09T16:44:44.796Z,5.37
2019-03-09T16:47:15.208Z,6.57
2019-03-09T16:49:44.995Z,1.70
2019-03-09T16:52:14.947Z,1.53
2019-03-09T16:54:44.809Z,1.20
2019-03-09T16:57:16.996Z,0.97
2019-03-09T16:59:46.811Z,2.93
2019-03-09T17:02:27.257Z,3.10
2019-03-09T17:04:48.369Z,1.33
2019-03-09T17:07:18.149Z,2.50
2019-03-09T17:09:47.998Z,1.67
2019-03-09T17:12:17.699Z,1.13
2019-03-09T17:14:47.502Z,0.80
2019-03-09T17:17:17.561Z,1.67
2019-03-09T17:19:47.453Z,3.47
2019-03-09T17:22:17.590Z,2.17
2019-03-09T17:24:47.461Z,2.53
2019-03-09T17:27:17.182Z,11.33
2019-03-09T17:29:47.249Z,1.90
2019-03-09T17:32:25.577Z,2.83
2019-03-09T17:34:48.704Z,2.50
2019-03-09T17:37:18.610Z,2.40
2019-03-09T17:39:48.495Z,3.40
2019-03-09T17:42:18.533Z,2.40
2019-03-09T17:44:48.463Z,3.00
2019-03-09T17:47:18.568Z,1.80
2019-03-09T17:49:48.400Z,4.40
2019-03-09T17:52:18.128Z,1.20
2019-03-09T17:54:48.095Z,5.33
2019-03-09T17:57:17.783Z,2.07
2019-03-09T17:59:47.523Z,4.23
2019-03-09T18:02:17.664Z,4.00
2019-03-09T18:04:47.555Z,2.20
2019-03-09T18:07:17.720Z,3.23
2019-03-09T18:09:47.615Z,2.13
2019-03-09T18:12:18.423Z,3.40
2019-03-09T18:14:48.171Z,3.97
2019-03-09T18:17:18.057Z,2.53
2019-03-09T18:19:47.747Z,2.90
2019-03-09T18:22:17.490Z,7.63
2019-03-09T18:24:51.608Z,3.37
2019-03-09T18:27:21.688Z,4.57
2019-03-09T18:29:51.458Z,3.90
2019-03-09T18:32:21.672Z,7.87
2019-03-09T18:34:51.759Z,4.37
2019-03-09T18:37:21.635Z,4.47
2019-03-09T18:39:51.576Z,3.03
2019-03-09T18:42:21.528Z,4.77
2019-03-09T18:44:52.435Z,3.73
2019-03-09T18:47:22.275Z,4.83
2019-03-09T18:49:52.167Z,4.33
2019-03-09T18:52:21.880Z,4.50
2019-03-09T18:54:51.692Z,4.03
2019-03-09T18:57:21.639Z,8.20
2019-03-09T18:59:51.620Z,9.47
2019-03-09T19:02:21.498Z,5.80
2019-03-09T19:04:51.479Z,6.87
2019-03-09T19:07:21.366Z,3.97
2019-03-09T19:09:51.300Z,2.93
2019-03-09T19:12:21.431Z,2.83
2019-03-09T19:14:51.540Z,2.77
2019-03-09T19:17:21.435Z,3.83
2019-03-09T19:19:51.475Z,2.87
2019-03-09T19:22:21.244Z,3.03
2019-03-09T19:24:51.180Z,6.10
2019-03-09T19:27:21.183Z,2.53
2019-03-09T19:29:51.003Z,2.30
2019-03-09T19:32:23.388Z,4.87
2019-03-09T19:34:54.967Z,1.50
2019-03-09T19:37:24.820Z,2.03
2019-03-09T19:39:54.585Z,1.50
2019-03-09T19:42:26.181Z,0.60
2019-03-09T19:44:56.131Z,1.17
2019-03-09T19:47:26.168Z,0.90
2019-03-09T19:49:56.183Z,2.57
2019-03-09T19:52:26.284Z,0.60
2019-03-09T19:54:56.408Z,0.80
2019-03-09T19:57:26.371Z,2.30
2019-03-09T20:00:14.997Z,1.30
2019-03-09T20:02:44.822Z,1.40
2019-03-09T20:05:14.901Z,1.70
2019-03-09T20:07:44.643Z,0.70
2019-03-09T20:10:14.759Z,1.13
2019-03-09T20:13:05.116Z,0.60
2019-03-09T20:15:34.859Z,0.83
2019-03-09T20:18:04.758Z,2.27
2019-03-09T20:20:34.891Z,1.03
2019-03-09T20:23:05.032Z,1.80
2019-03-09T20:25:35.103Z,1.40
2019-03-09T20:28:05.019Z,1.10
2019-03-09T20:30:34.939Z,0.93
2019-03-09T20:33:04.652Z,1.13
2019-03-09T20:35:34.785Z,1.43
2019-03-09T20:38:04.719Z,2.70
2019-03-09T20:40:34.728Z,0.77
2019-03-09T20:43:04.654Z,1.30
2019-03-09T20:45:34.610Z,1.47
2019-03-09T20:48:04.648Z,0.50
2019-03-09T20:50:34.360Z,0.53
2019-03-09T20:53:04.109Z,1.57
2019-03-09T20:55:33.993Z,1.27
2019-03-09T20:58:04.002Z,0.80
2019-03-09T21:00:33.935Z,1.00
2019-03-09T21:03:03.932Z,1.00
2019-03-09T21:05:33.957Z,1.07
2019-03-09T21:08:03.772Z,0.87
2019-03-09T21:10:33.881Z,1.00
2019-03-09T21:13:05.472Z,0.53
2019-03-09T21:15:35.601Z,0.90
2019-03-09T21:18:05.751Z,1.20
2019-03-09T21:20:35.801Z,0.53
2019-03-09T21:23:05.755Z,0.60
2019-03-09T21:25:35.779Z,1.83
2019-03-09T21:28:05.758Z,1.27
2019-03-09T21:30:35.776Z,3.67
2019-03-09T21:33:05.683Z,3.37
2019-03-09T21:35:35.810Z,0.93
2019-03-09T21:38:05.948Z,0.77
2019-03-09T21:40:35.863Z,2.87
2019-03-09T21:43:05.748Z,1.00
2019-03-09T21:45:35.473Z,2.53
2019-03-09T21:48:05.614Z,0.83
2019-03-09T21:50:35.467Z,1.27
2019-03-09T21:53:05.240Z,2.90
2019-03-09T21:55:35.125Z,1.10
2019-03-09T21:58:05.155Z,0.90
2019-03-09T22:00:35.288Z,2.13
2019-03-09T22:03:05.171Z,1.90
2019-03-09T22:05:34.883Z,1.70
2019-03-09T22:08:04.716Z,2.30
2019-03-09T22:10:34.811Z,2.77
2019-03-09T22:13:04.633Z,2.53
2019-03-09T22:15:34.772Z,1.93
2019-03-09T22:18:04.641Z,2.63
2019-03-09T22:20:34.396Z,1.63
2019-03-09T22:23:04.221Z,5.43
2019-03-09T22:25:34.103Z,3.30
2019-03-09T22:28:04.420Z,3.23
2019-03-09T22:30:34.565Z,2.70
2019-03-09T22:33:04.946Z,3.40
2019-03-09T22:35:35.010Z,2.87
2019-03-09T22:38:04.984Z,4.17
2019-03-09T22:40:36.539Z,5.53
2019-03-09T22:43:06.277Z,3.07
2019-03-09T22:45:36.210Z,5.80
2019-03-09T22:48:06.094Z,5.13
2019-03-09T22:50:36.038Z,4.43
2019-03-09T22:53:06.153Z,4.37
2019-03-09T22:55:36.283Z,5.50
2019-03-09T22:58:06.164Z,3.87
2019-03-09T23:00:37.028Z,5.43
2019-03-09T23:03:07.034Z,3.80
2019-03-09T23:05:37.141Z,5.83
2019-03-09T23:08:07.328Z,4.40
2019-03-09T23:10:37.400Z,4.80
2019-03-09T23:13:07.371Z,7.20
2019-03-09T23:15:37.471Z,4.87
2019-03-09T23:18:07.455Z,4.60
2019-03-09T23:20:37.224Z,4.67
2019-03-09T23:23:06.985Z,4.13
2019-03-09T23:25:37.083Z,5.03
2019-03-09T23:28:07.048Z,2.53
2019-03-09T23:30:37.143Z,2.73
2019-03-09T23:33:07.042Z,5.90
2019-03-09T23:35:36.895Z,6.77
2019-03-09T23:38:08.552Z,3.70
2019-03-09T23:40:38.306Z,4.73
2019-03-09T23:43:07.978Z,3.90
2019-03-09T23:45:37.607Z,2.87
2019-03-09T23:48:07.198Z,6.03
2019-03-09T23:50:36.920Z,3.50
2019-03-09T23:53:06.639Z,3.73
2019-03-09T23:55:38.409Z,4.07
2019-03-09T23:58:07.996Z,3.97
